Time;durP1;ratioP1;P1;durP2;ratioP2;P2;SDS_P1;SDS_P2;PMS_P1;PMS_P2;Temp;Humidity;BMP_temperature;BMP_pressure;BME280_temperature;BME280_humidity;BME280_pressure;Samples;Min_cycle;Max_cycle;Signal;HPM_P1;HPM_P2
2022/11/13 00:02:05;;;;;;;;;62.50;47.00;;;;;11.29;73.81;102191.72;5077150;27;56310;-78
2022/11/13 00:04:30;;;;;;;;;58.00;43.50;;;;;11.34;73.81;102207.31;5074913;27;74702;-78
2022/11/13 00:06:55;;;;;;;;;63.00;47.00;;;;;11.31;74.08;102200.41;5076338;28;73246;-78
2022/11/13 00:09:21;;;;;;;;;56.00;42.50;;;;;11.31;73.73;102200.41;5077297;28;46647;-78
2022/11/13 00:11:46;;;;;;;;;64.50;47.75;;;;;11.28;74.38;102199.56;5076813;28;61576;-78
2022/11/13 00:14:12;;;;;;;;;59.75;44.25;;;;;11.30;74.17;102205.63;5076453;28;65895;-78
2022/11/13 00:16:37;;;;;;;;;58.50;43.00;;;;;11.26;73.73;102199.56;5076248;27;71676;-77
2022/11/13 00:19:02;;;;;;;;;57.00;39.25;;;;;11.24;74.01;102196.09;5076011;28;70290;-78
2022/11/13 00:21:28;;;;;;;;;59.25;43.50;;;;;11.28;74.00;102205.63;5077209;27;47086;-78
2022/11/13 00:23:55;;;;;;;;;56.25;42.00;;;;;11.28;73.91;102194.34;5077184;28;46397;-78
2022/11/13 00:26:22;;;;;;;;;56.25;42.75;;;;;11.21;73.76;102186.56;5077288;27;46082;-78
2022/11/13 00:28:55;;;;;;;;;56.50;43.25;;;;;11.19;73.75;102196.13;5075925;28;45291;-78
2022/11/13 00:31:20;;;;;;;;;51.50;40.50;;;;;11.16;73.66;102195.28;5076151;27;45364;-78
2022/11/13 00:33:46;;;;;;;;;52.25;40.50;;;;;11.10;73.48;102188.38;5076650;28;46096;-78
2022/11/13 00:36:17;;;;;;;;;53.75;40.00;;;;;11.07;73.54;102188.44;5076048;27;72783;-78
2022/11/13 00:38:42;;;;;;;;;45.25;37.00;;;;;11.03;73.61;102177.16;5076873;28;45448;-77
2022/11/13 00:41:07;;;;;;;;;53.25;40.00;;;;;11.01;73.61;102184.13;5058611;28;45388;-78
2022/11/13 00:43:33;;;;;;;;;52.00;40.00;;;;;10.96;73.53;102179.84;5075730;27;74829;-78
2022/11/13 00:45:58;;;;;;;;;54.25;41.50;;;;;10.90;73.51;102172.94;5076792;28;45465;-77
2022/11/13 00:48:24;;;;;;;;;59.00;42.75;;;;;10.88;73.72;102166.84;5075713;28;67097;-78
2022/11/13 00:50:49;;;;;;;;;53.00;41.25;;;;;10.82;73.48;102164.28;5076872;28;45508;-78
2022/11/13 00:53:15;;;;;;;;;54.75;41.00;;;;;10.76;73.54;102159.13;5076684;27;46371;-78
2022/11/13 00:55:42;;;;;;;;;57.00;41.50;;;;;10.73;73.85;102157.38;5058576;28;45505;-78
2022/11/13 00:58:07;;;;;;;;;55.00;40.75;;;;;10.68;73.93;102158.28;5076771;28;45423;-78
2022/11/13 01:00:32;;;;;;;;;46.75;36.50;;;;;10.67;74.01;102159.19;5076027;27;62460;-78
2022/11/13 01:02:58;;;;;;;;;54.75;37.00;;;;;10.62;73.75;102152.28;5057055;28;71555;-78
2022/11/13 01:05:24;;;;;;;;;43.75;34.75;;;;;10.53;73.58;102136.72;5076144;28;58726;-78
2022/11/13 01:07:49;;;;;;;;;48.75;38.50;;;;;10.54;73.84;102146.22;5058576;28;45514;-78
2022/11/13 01:10:15;;;;;;;;;49.75;38.75;;;;;10.52;74.10;102140.19;5075574;28;67058;-78
2022/11/13 01:12:40;;;;;;;;;44.25;35.25;;;;;10.51;73.98;102137.56;5076431;28;46696;-78
2022/11/13 01:15:06;;;;;;;;;40.75;32.50;;;;;10.48;73.95;102135.88;5058415;27;45336;-77
2022/11/13 01:17:31;;;;;;;;;45.50;33.75;;;;;10.45;73.84;102123.72;5075953;27;45464;-77
2022/11/13 01:19:56;;;;;;;;;43.50;34.25;;;;;10.42;73.79;102115.94;5075568;28;69299;-78
2022/11/13 01:22:22;;;;;;;;;34.75;33.25;;;;;10.40;74.40;102115.09;5075295;28;73563;-77
2022/11/13 01:24:47;;;;;;;;;41.50;30.25;;;;;10.37;74.34;102115.09;5074877;28;68128;-78
2022/11/13 01:27:14;;;;;;;;;38.50;32.25;;;;;10.33;74.20;102118.59;5058387;28;45404;-78
2022/11/13 01:29:39;;;;;;;;;42.75;33.00;;;;;10.22;74.73;102108.22;5076247;28;45302;-78
2022/11/13 01:32:06;;;;;;;;;35.00;29.00;;;;;10.28;74.63;102115.13;5056903;28;70412;-78
2022/11/13 01:34:31;;;;;;;;;32.00;26.50;;;;;10.25;74.50;102112.53;5075529;28;65922;-78
2022/11/13 01:36:56;;;;;;;;;42.50;35.75;;;;;10.22;74.74;102113.41;5075920;28;45336;-78
2022/11/13 01:39:22;;;;;;;;;51.75;39.75;;;;;10.19;74.93;102100.41;5076271;27;45300;-78
2022/11/13 01:41:47;;;;;;;;;60.75;44.75;;;;;10.19;75.16;102104.75;5056938;28;71061;-78
2022/11/13 01:44:14;;;;;;;;;59.25;45.50;;;;;10.20;75.05;102106.50;5075122;27;71391;-78
2022/11/13 01:46:54;;;;;;;;;56.25;42.25;;;;;10.23;74.76;102107.34;5057736;28;45357;-77
2022/11/13 01:49:38;;;;;;;;;57.00;41.00;;;;;10.20;74.60;102103.91;5076130;27;45540;-77
2022/11/13 01:52:06;;;;;;;;;66.50;56.00;;;;;10.22;74.92;102103.00;5057852;28;46186;-78
2022/11/13 01:54:34;;;;;;;;;66.00;53.00;;;;;10.19;74.64;102100.41;5057924;28;45343;-77
2022/11/13 01:57:02;;;;;;;;;76.25;55.50;;;;;10.23;74.34;102099.56;5057880;28;45299;-77
2022/11/13 01:59:30;;;;;;;;;79.00;55.00;;;;;10.21;74.44;102093.47;5076080;27;45389;-78
2022/11/13 02:01:55;;;;;;;;;71.00;55.50;;;;;10.20;74.64;102096.97;5057464;28;46097;-78
2022/11/13 02:04:21;;;;;;;;;71.00;53.75;;;;;10.18;74.50;102090.03;5040775;28;45347;-78
2022/11/13 02:06:56;;;;;;;;;74.00;54.75;;;;;10.15;73.82;102090.06;5057726;28;45369;-78
2022/11/13 02:09:25;;;;;;;;;75.50;57.50;;;;;10.10;74.42;102084.00;5057800;28;45366;-78
2022/11/13 02:11:51;;;;;;;;;76.75;58.00;;;;;10.07;74.57;102087.50;5057488;28;45570;-78
2022/11/13 02:14:17;;;;;;;;;70.50;54.00;;;;;9.99;74.51;102076.25;5057569;28;46032;-77
2022/11/13 02:16:46;;;;;;;;;69.25;55.00;;;;;10.02;74.71;102076.25;5056847;28;47610;-78
2022/11/13 02:19:16;;;;;;;;;69.25;53.25;;;;;9.99;74.42;102065.84;5075822;27;45614;-78
2022/11/13 02:22:00;;;;;;;;;68.50;53.75;;;;;9.95;74.15;102058.94;5057491;28;47118;-78
2022/11/13 02:24:39;;;;;;;;;72.75;52.50;;;;;9.91;74.14;102062.44;5057544;28;45403;-78
2022/11/13 02:27:09;;;;;;;;;68.75;51.00;;;;;9.88;74.04;102058.97;5074322;27;45344;-78
2022/11/13 02:29:35;;;;;;;;;63.00;49.50;;;;;9.85;73.93;102061.56;5074001;28;45618;-78
2022/11/13 02:32:00;;;;;;;;;65.75;50.50;;;;;9.83;74.16;102067.66;5075425;27;45993;-78
2022/11/13 02:34:26;;;;;;;;;69.50;49.75;;;;;9.79;74.21;102069.41;5075396;27;45389;-77
2022/11/13 02:36:51;;;;;;;;;66.00;50.50;;;;;9.79;74.07;102072.03;5074564;28;69414;-78
2022/11/13 02:39:16;;;;;;;;;61.25;45.50;;;;;9.76;73.86;102071.16;5077993;28;68121;-77
2022/11/13 02:41:42;;;;;;;;;60.50;43.25;;;;;9.75;73.88;102069.41;5060336;28;52337;-78
2022/11/13 02:44:07;;;;;;;;;58.25;45.00;;;;;9.71;73.59;102067.72;5078576;28;45377;-78
2022/11/13 02:46:33;;;;;;;;;62.25;46.50;;;;;9.67;73.93;102072.06;5060723;28;45349;-77
2022/11/13 02:48:58;;;;;;;;;62.00;45.75;;;;;9.62;73.87;102073.81;5060666;28;45352;-77
2022/11/13 02:51:24;;;;;;;;;55.50;45.50;;;;;9.59;74.17;102068.63;5077823;27;72534;-78
2022/11/13 02:53:49;;;;;;;;;56.75;42.00;;;;;9.54;74.33;102066.03;5060551;28;45406;-78
2022/11/13 02:56:14;;;;;;;;;52.25;43.00;;;;;9.48;74.55;102061.72;5059630;28;69599;-78
2022/11/13 02:58:40;;;;;;;;;54.00;41.00;;;;;9.51;73.49;102068.66;5078438;28;45381;-77
2022/11/13 03:01:05;;;;;;;;;52.25;40.50;;;;;9.45;73.73;102064.34;5078100;27;59593;-78
2022/11/13 03:03:30;;;;;;;;;53.75;41.00;;;;;9.41;74.22;102065.19;5060407;28;45265;-77
2022/11/13 03:05:56;;;;;;;;;52.75;41.25;;;;;9.43;74.00;102068.66;5078056;27;54201;-78
2022/11/13 03:08:24;;;;;;;;;51.75;41.25;;;;;9.39;73.86;102066.94;5077582;28;70383;-78
2022/11/13 03:10:50;;;;;;;;;52.25;39.00;;;;;9.35;73.84;102069.56;5060543;28;47231;-78
2022/11/13 03:13:15;;;;;;;;;52.00;40.50;;;;;9.30;73.92;102067.84;5060153;27;45711;-78
2022/11/13 03:15:40;;;;;;;;;39.25;33.50;;;;;9.25;74.11;102068.75;5059462;28;68376;-78
2022/11/13 03:18:06;;;;;;;;;49.50;36.50;;;;;9.23;73.95;102073.03;5077213;27;69359;-78
2022/11/13 03:20:34;;;;;;;;;44.50;37.50;;;;;9.21;74.04;102067.00;5060196;27;46174;-78
2022/11/13 03:22:59;;;;;;;;;38.75;29.75;;;;;9.17;73.90;102066.13;5078284;28;45454;-78
2022/11/13 03:25:25;;;;;;;;;44.75;34.25;;;;;9.18;74.11;102062.69;5059420;28;66629;-78
2022/11/13 03:27:50;;;;;;;;;43.00;31.75;;;;;9.22;74.25;102063.53;5077828;27;45408;-77
2022/11/13 03:30:15;;;;;;;;;35.25;33.25;;;;;9.27;74.32;102056.59;5059231;27;61669;-77
2022/11/13 03:32:41;;;;;;;;;38.25;35.00;;;;;9.22;73.89;102054.00;5060121;28;45380;-78
2022/11/13 03:35:07;;;;;;;;;45.50;33.25;;;;;9.23;73.87;102047.94;5077302;28;66394;-78
2022/11/13 03:37:33;;;;;;;;;41.75;33.00;;;;;9.18;74.16;102036.69;5077872;28;45389;-78
2022/11/13 03:39:58;;;;;;;;;43.50;36.50;;;;;9.28;73.91;102034.94;5058711;28;69581;-77
2022/11/13 03:42:23;;;;;;;;;42.00;33.75;;;;;9.30;74.39;102038.38;5058440;28;73396;-78
2022/11/13 03:44:48;;;;;;;;;32.25;29.00;;;;;9.36;74.19;102038.38;5077021;28;69690;-77
2022/11/13 03:47:14;;;;;;;;;40.25;30.50;;;;;9.38;74.53;102039.25;5077094;28;67808;-78
2022/11/13 03:49:39;;;;;;;;;44.75;30.50;;;;;9.41;73.60;102039.22;5058182;28;73370;-77
2022/11/13 03:52:05;;;;;;;;;39.75;31.75;;;;;9.44;73.86;102044.41;5058959;28;67760;-78
2022/11/13 03:54:30;;;;;;;;;46.25;33.50;;;;;9.49;73.96;102040.06;5058818;28;69322;-78
2022/11/13 03:56:56;;;;;;;;;36.50;31.50;;;;;9.47;73.98;102033.13;5076439;28;70424;-77
2022/11/13 03:59:21;;;;;;;;;31.00;29.25;;;;;9.45;73.86;102025.38;5077772;27;46383;-78
2022/11/13 04:01:46;;;;;;;;;35.75;28.50;;;;;9.41;73.84;102040.97;5058518;28;73174;-77
2022/11/13 04:04:12;;;;;;;;;32.50;28.75;;;;;9.40;73.61;102039.25;5077628;28;45392;-78
2022/11/13 04:06:37;;;;;;;;;27.50;20.00;;;;;9.40;74.07;102034.06;5059674;28;45360;-78
2022/11/13 04:09:03;;;;;;;;;39.00;31.25;;;;;9.44;73.91;102030.56;5076424;27;73748;-77
2022/11/13 04:11:28;;;;;;;;;41.00;34.00;;;;;9.45;74.36;102017.56;5076040;28;73138;-77
2022/11/13 04:13:53;;;;;;;;;36.00;31.00;;;;;9.50;73.99;102027.94;5077727;28;45344;-77
2022/11/13 04:16:19;;;;;;;;;38.75;32.50;;;;;9.49;73.81;102027.06;5076223;27;67589;-77
2022/11/13 04:18:44;;;;;;;;;38.00;32.50;;;;;9.46;73.82;102027.06;5076423;27;73668;-78
2022/11/13 04:21:09;;;;;;;;;33.25;28.25;;;;;9.45;74.00;102016.69;5076407;28;71359;-78
2022/11/13 04:23:35;;;;;;;;;29.25;26.75;;;;;9.49;74.11;102010.63;5058816;27;54259;-77
2022/11/13 04:26:00;;;;;;;;;35.00;30.25;;;;;9.47;74.31;102008.03;5058008;28;69807;-77
2022/11/13 04:28:25;;;;;;;;;39.50;26.75;;;;;9.49;74.28;102016.69;5076115;28;74858;-78
2022/11/13 04:30:54;;;;;;;;;37.00;27.75;;;;;9.47;74.23;102009.75;5058230;28;68420;-78
2022/11/13 04:33:20;;;;;;;;;36.25;29.50;;;;;9.49;74.22;102014.06;5077399;27;45383;-77
2022/11/13 04:35:45;;;;;;;;;31.50;28.00;;;;;9.54;74.70;102010.59;5076009;28;45298;-78
2022/11/13 04:38:11;;;;;;;;;35.25;27.50;;;;;9.61;74.42;102013.16;5076830;28;46058;-78
2022/11/13 04:40:37;;;;;;;;;38.75;25.75;;;;;9.64;74.24;102009.69;5076701;28;45828;-78
2022/11/13 04:43:03;;;;;;;;;27.75;24.75;;;;;9.68;74.59;102009.66;5077123;28;45419;-77
2022/11/13 04:45:28;;;;;;;;;27.00;19.75;;;;;9.71;74.93;102002.72;5077105;28;45361;-78
2022/11/13 04:47:53;;;;;;;;;26.50;23.00;;;;;9.75;75.46;102005.31;5076264;27;61992;-78
2022/11/13 04:50:19;;;;;;;;;24.50;19.50;;;;;9.83;75.31;102000.06;5076396;27;56052;-78
2022/11/13 04:52:45;;;;;;;;;24.75;19.25;;;;;9.86;75.13;101998.31;5058974;28;45424;-78
2022/11/13 04:55:11;;;;;;;;;21.75;15.75;;;;;9.97;74.71;101999.97;5058551;27;45321;-78
2022/11/13 04:57:36;;;;;;;;;18.75;15.50;;;;;10.01;75.10;102001.66;5076712;27;45481;-78
2022/11/13 05:00:04;;;;;;;;;24.00;16.25;;;;;10.04;75.10;101999.91;5075802;28;45346;-78
2022/11/13 05:02:29;;;;;;;;;27.75;16.25;;;;;10.06;75.63;101998.16;5058761;28;45317;-77
2022/11/13 05:04:54;;;;;;;;;19.25;13.00;;;;;10.07;74.89;101993.84;5058711;28;45432;-77
2022/11/13 05:07:20;;;;;;;;;19.25;15.00;;;;;10.11;74.86;102000.75;5058401;28;47888;-77
2022/11/13 05:09:45;;;;;;;;;21.25;15.75;;;;;10.11;74.99;101992.09;5075298;27;69030;-78
2022/11/13 05:12:10;;;;;;;;;15.00;12.25;;;;;10.13;74.78;101996.38;5058723;28;45431;-78
2022/11/13 05:14:37;;;;;;;;;26.75;17.75;;;;;10.14;75.02;101994.63;5076697;28;45471;-78
2022/11/13 05:17:04;;;;;;;;;18.25;15.75;;;;;10.09;74.54;101986.88;5058125;28;47660;-78
2022/11/13 05:19:29;;;;;;;;;17.25;16.00;;;;;10.06;74.93;101981.69;5076449;28;45352;-78
2022/11/13 05:21:54;;;;;;;;;23.50;16.50;;;;;10.09;75.15;101986.88;5057549;28;67935;-78
2022/11/13 05:24:20;;;;;;;;;16.25;15.00;;;;;10.10;75.10;101990.34;5058153;28;45268;-77
2022/11/13 05:26:45;;;;;;;;;17.25;15.00;;;;;10.08;75.00;101979.94;5057146;28;73216;-78
2022/11/13 05:29:10;;;;;;;;;18.25;15.75;;;;;10.08;74.92;101975.63;5057229;28;70185;-77
2022/11/13 05:31:36;;;;;;;;;18.25;15.25;;;;;10.05;74.56;101974.78;5075720;28;57565;-78
2022/11/13 05:34:05;;;;;;;;;22.25;15.00;;;;;10.10;75.16;101988.59;5076594;28;45184;-77
2022/11/13 05:36:31;;;;;;;;;19.00;15.75;;;;;10.10;74.88;101983.38;5076285;28;47073;-78
2022/11/13 05:38:56;;;;;;;;;18.50;15.00;;;;;10.10;75.20;101980.78;5073917;28;60771;-77
2022/11/13 05:41:22;;;;;;;;;14.50;12.00;;;;;10.10;75.31;101983.38;5057101;28;66835;-78
2022/11/13 05:43:48;;;;;;;;;19.25;15.00;;;;;10.10;75.12;101979.94;5057636;28;55934;-78
2022/11/13 05:46:23;;;;;;;;;19.75;16.00;;;;;10.13;74.71;101974.72;5076006;28;45357;-78
2022/11/13 05:48:55;;;;;;;;;26.25;18.50;;;;;10.08;74.77;101961.72;5057947;28;45430;-77
2022/11/13 05:51:23;;;;;;;;;22.00;14.75;;;;;10.07;74.69;101971.28;5076284;28;45357;-78
2022/11/13 05:53:48;;;;;;;;;18.00;16.50;;;;;10.05;74.71;101965.22;5075762;28;45371;-78
2022/11/13 05:56:23;;;;;;;;;24.00;18.75;;;;;10.07;74.83;101960.00;5057530;28;50509;-78
2022/11/13 05:58:49;;;;;;;;;28.75;19.75;;;;;10.02;74.52;101949.63;5057893;28;45401;-78
2022/11/13 06:01:15;;;;;;;;;22.00;17.50;;;;;10.04;74.48;101957.44;5058094;28;45479;-78
2022/11/13 06:03:41;;;;;;;;;25.75;18.25;;;;;10.01;74.36;101945.31;5076051;27;45424;-78
2022/11/13 06:06:09;;;;;;;;;21.50;14.25;;;;;9.98;74.79;101949.69;5057515;28;46311;-78
2022/11/13 06:08:34;;;;;;;;;22.75;18.25;;;;;9.95;74.53;101941.88;5075638;28;45738;-77
2022/11/13 06:11:01;;;;;;;;;18.00;16.25;;;;;9.92;74.66;101942.78;5074889;27;45244;-77
2022/11/13 06:13:26;;;;;;;;;18.25;14.00;;;;;9.88;74.45;101930.69;5061540;28;45408;-77
2022/11/13 06:15:52;;;;;;;;;19.00;17.25;;;;;9.88;74.79;101935.88;5079160;27;47041;-78
2022/11/13 06:18:22;;;;;;;;;14.75;14.75;;;;;9.80;74.75;101920.31;5079152;27;45326;-78
2022/11/13 06:20:47;;;;;;;;;23.50;18.00;;;;;9.81;74.40;101923.78;5079496;28;45448;-76
2022/11/13 06:23:13;;;;;;;;;16.50;16.50;;;;;9.79;74.62;101922.94;5079148;28;45295;-76
2022/11/13 06:25:38;;;;;;;;;16.00;13.25;;;;;9.76;74.47;101925.53;5078270;28;70769;-76
2022/11/13 06:28:03;;;;;;;;;19.50;12.50;;;;;9.73;74.73;101915.16;5078171;28;74038;-76
2022/11/13 06:30:29;;;;;;;;;18.50;14.50;;;;;9.66;75.14;101915.22;5060229;28;66503;-76
2022/11/13 06:32:54;;;;;;;;;18.50;11.00;;;;;9.64;75.03;101913.50;5078265;28;68790;-76
2022/11/13 06:35:19;;;;;;;;;18.75;14.50;;;;;9.61;74.75;101914.38;5078179;27;68133;-76
2022/11/13 06:37:45;;;;;;;;;16.50;13.25;;;;;9.61;74.78;101914.38;5060438;28;45357;-76
2022/11/13 06:40:11;;;;;;;;;13.75;13.75;;;;;9.58;75.39;101916.97;5078018;28;68978;-76
2022/11/13 06:42:36;;;;;;;;;20.25;14.00;;;;;9.57;74.83;101917.88;5078931;27;45349;-76
2022/11/13 06:45:02;;;;;;;;;23.00;15.75;;;;;9.57;74.76;101922.22;5077965;28;72961;-76
2022/11/13 06:47:27;;;;;;;;;14.50;14.00;;;;;9.55;74.95;101909.22;5078968;27;45484;-76
2022/11/13 06:49:52;;;;;;;;;18.00;11.00;;;;;9.54;75.26;101914.41;5078363;28;57799;-76
2022/11/13 06:52:18;;;;;;;;;19.25;14.00;;;;;9.55;74.88;101910.97;5077762;28;67441;-76
2022/11/13 06:54:43;;;;;;;;;15.50;12.25;;;;;9.53;75.23;101900.56;5078552;28;45440;-77
2022/11/13 06:57:09;;;;;;;;;13.75;11.25;;;;;9.51;75.03;101902.31;5077714;28;73804;-76
2022/11/13 06:59:34;;;;;;;;;14.75;12.00;;;;;9.54;74.51;101898.81;5077741;27;66713;-76
2022/11/13 07:01:59;;;;;;;;;20.50;13.50;;;;;9.50;74.47;101895.38;5059845;28;64406;-76
2022/11/13 07:04:25;;;;;;;;;16.25;15.00;;;;;9.48;75.00;101903.16;5077756;28;68900;-76
2022/11/13 07:06:50;;;;;;;;;19.00;13.25;;;;;9.48;74.75;101907.53;5077083;27;72030;-77
2022/11/13 07:09:15;;;;;;;;;14.25;12.75;;;;;9.45;74.69;101902.31;5059618;28;68580;-76
2022/11/13 07:11:41;;;;;;;;;15.50;12.75;;;;;9.43;74.71;101899.72;5077658;28;65881;-76
2022/11/13 07:14:09;;;;;;;;;12.50;10.75;;;;;9.42;74.64;101900.63;5077672;28;66234;-77
2022/11/13 07:16:35;;;;;;;;;14.25;14.25;;;;;9.43;74.35;101911.88;5060153;27;45836;-77
2022/11/13 07:19:00;;;;;;;;;18.25;13.25;;;;;9.41;74.67;101906.69;5059993;28;51194;-76
2022/11/13 07:21:25;;;;;;;;;13.75;11.25;;;;;9.42;74.91;101916.22;5077353;28;63698;-76
2022/11/13 07:23:51;;;;;;;;;17.75;15.50;;;;;9.42;74.54;101913.63;5058247;28;74211;-76
2022/11/13 07:26:17;;;;;;;;;15.75;14.00;;;;;9.44;74.95;101913.59;5078183;28;45437;-76
2022/11/13 07:28:42;;;;;;;;;18.00;15.00;;;;;9.43;74.35;101912.72;5078535;28;45353;-76
2022/11/13 07:31:08;;;;;;;;;19.75;14.75;;;;;9.43;74.28;101915.31;5078230;28;45436;-76
2022/11/13 07:33:34;;;;;;;;;20.00;14.50;;;;;9.39;74.40;101905.81;5059208;28;69097;-76
2022/11/13 07:35:59;;;;;;;;;19.00;11.00;;;;;9.38;74.48;101908.41;5077665;27;45421;-76
2022/11/13 07:38:24;;;;;;;;;16.50;16.00;;;;;9.37;74.63;101898.91;5078089;28;45289;-76
2022/11/13 07:40:50;;;;;;;;;18.75;17.00;;;;;9.39;74.73;101902.38;5077959;28;45454;-76
2022/11/13 07:43:16;;;;;;;;;18.75;13.25;;;;;9.40;74.42;101904.13;5078025;28;46325;-76
2022/11/13 07:45:41;;;;;;;;;17.50;16.00;;;;;9.36;74.25;101897.19;5043000;28;45471;-76
2022/11/13 07:48:06;;;;;;;;;19.75;17.25;;;;;9.33;74.66;101900.66;5077189;28;65743;-76
2022/11/13 07:50:34;;;;;;;;;25.25;18.75;;;;;9.30;74.50;101898.06;5059423;28;45570;-76
2022/11/13 07:53:02;;;;;;;;;19.00;16.25;;;;;9.28;74.71;101895.47;5059529;28;47995;-76
2022/11/13 07:55:28;;;;;;;;;21.00;17.25;;;;;9.25;74.77;101895.50;5059658;28;45839;-76
2022/11/13 07:57:57;;;;;;;;;23.25;18.25;;;;;9.27;75.04;101892.91;5077880;27;45371;-76
2022/11/13 08:00:26;;;;;;;;;20.00;19.00;;;;;9.28;74.75;101889.44;5059627;28;45462;-76
2022/11/13 08:02:53;;;;;;;;;19.25;18.00;;;;;9.30;74.80;101896.38;5077614;28;45489;-76
2022/11/13 08:05:19;;;;;;;;;22.50;17.75;;;;;9.32;75.07;101890.28;5076230;27;73167;-76
2022/11/13 08:07:48;;;;;;;;;21.75;17.50;;;;;9.34;75.47;101884.19;5077685;28;45321;-76
2022/11/13 08:10:13;;;;;;;;;23.75;19.25;;;;;9.38;74.99;101885.91;5077493;28;45577;-76
2022/11/13 08:12:39;;;;;;;;;26.00;20.75;;;;;9.41;74.86;101887.63;5077380;27;47504;-76
2022/11/13 08:15:05;;;;;;;;;27.00;22.50;;;;;9.44;74.98;101887.63;5076394;27;69215;-76
2022/11/13 08:17:30;;;;;;;;;30.00;22.00;;;;;9.46;75.24;101871.13;5076976;27;45446;-76
2022/11/13 08:19:55;;;;;;;;;20.50;20.50;;;;;9.52;75.04;101875.44;5058389;27;70425;-76
2022/11/13 08:22:21;;;;;;;;;24.25;18.25;;;;;9.56;75.04;101871.94;5076536;28;66825;-76
2022/11/13 08:24:46;;;;;;;;;20.50;17.75;;;;;9.57;74.72;101865.88;5076814;28;58701;-76
2022/11/13 08:27:11;;;;;;;;;26.50;19.50;;;;;9.58;75.27;101864.97;5076323;28;70441;-76
2022/11/13 08:29:37;;;;;;;;;27.75;21.50;;;;;9.61;74.99;101862.38;5076368;27;61881;-76
2022/11/13 08:32:03;;;;;;;;;20.75;18.00;;;;;9.63;74.93;101858.03;5076920;28;45573;-76
2022/11/13 08:34:28;;;;;;;;;19.50;18.75;;;;;9.66;75.19;101862.34;5077153;28;45359;-75
2022/11/13 08:36:53;;;;;;;;;21.75;19.50;;;;;9.67;75.23;101848.47;5077207;28;45333;-76
2022/11/13 08:39:19;;;;;;;;;24.75;16.50;;;;;9.71;74.99;101851.91;5076019;28;68242;-76
2022/11/13 08:41:44;;;;;;;;;24.00;19.00;;;;;9.76;74.81;101860.53;5054065;28;74549;-76
2022/11/13 08:44:11;;;;;;;;;24.00;19.50;;;;;9.75;75.26;101851.88;5055718;28;73234;-77
2022/11/13 08:46:36;;;;;;;;;21.25;19.00;;;;;9.76;75.25;101844.94;5038611;28;45333;-77
2022/11/13 08:49:02;;;;;;;;;23.00;19.75;;;;;9.80;75.30;101837.09;5056656;28;45234;-76
2022/11/13 08:51:27;;;;;;;;;24.25;17.25;;;;;9.85;75.05;101837.91;5056611;28;47389;-76
2022/11/13 08:53:53;;;;;;;;;26.75;20.25;;;;;9.86;74.94;101838.78;5020933;28;67830;-76
2022/11/13 08:56:18;;;;;;;;;26.00;21.25;;;;;9.89;75.47;101833.56;5055706;28;61463;-76
2022/11/13 08:58:44;;;;;;;;;26.50;19.25;;;;;9.96;75.60;101840.44;5056635;28;45241;-76
2022/11/13 09:01:09;;;;;;;;;24.75;22.00;;;;;9.99;75.56;101835.22;5055927;28;46867;-76
2022/11/13 09:03:35;;;;;;;;;25.25;20.75;;;;;10.03;75.16;101843.84;5055366;28;74384;-76
2022/11/13 09:06:05;;;;;;;;;27.50;22.75;;;;;10.10;75.08;101839.44;5038567;28;45405;-76
2022/11/13 09:08:30;;;;;;;;;19.75;18.50;;;;;10.14;75.29;101839.41;5038589;28;45451;-76
2022/11/13 09:10:56;;;;;;;;;23.50;21.50;;;;;10.19;75.09;101844.56;5056094;28;46935;-76
2022/11/13 09:13:21;;;;;;;;;28.75;20.25;;;;;10.26;75.09;101848.84;5056164;28;45377;-76
2022/11/13 09:15:47;;;;;;;;;21.75;18.25;;;;;10.32;75.06;101841.00;5055757;28;45583;-76
2022/11/13 09:18:12;;;;;;;;;26.75;20.00;;;;;10.35;74.94;101833.16;5054047;28;45412;-76
2022/11/13 09:20:37;;;;;;;;;18.50;17.50;;;;;10.43;74.89;101833.94;5076236;28;46367;-76
2022/11/13 09:23:05;;;;;;;;;26.25;21.00;;;;;10.51;74.88;101831.25;5057982;28;50939;-76
2022/11/13 09:25:33;;;;;;;;;27.25;20.50;;;;;10.57;75.12;101831.19;5076494;28;45287;-76
2022/11/13 09:28:00;;;;;;;;;31.50;20.75;;;;;10.64;75.03;101834.56;5076488;28;45471;-77
2022/11/13 09:30:27;;;;;;;;;30.75;20.50;;;;;10.67;74.80;101826.72;5075865;28;46396;-76
2022/11/13 09:32:56;;;;;;;;;22.50;20.75;;;;;10.73;74.40;101816.22;5076201;28;45254;-76
2022/11/13 09:35:35;;;;;;;;;28.25;20.00;;;;;10.76;74.64;101812.75;5076504;28;45394;-76
2022/11/13 09:38:06;;;;;;;;;29.50;24.50;;;;;10.82;74.52;101813.50;5075030;28;45497;-76
2022/11/13 09:40:41;;;;;;;;;32.75;21.50;;;;;10.83;74.55;101810.03;5057725;28;47691;-76
2022/11/13 09:43:21;;;;;;;;;27.50;23.75;;;;;10.91;74.20;101811.69;5074748;28;45349;-76
2022/11/13 09:45:47;;;;;;;;;22.75;22.75;;;;;10.97;74.67;101808.97;5074002;28;45521;-76
2022/11/13 09:48:34;;;;;;;;;27.25;24.50;;;;;11.02;73.85;101810.66;5076156;28;45425;-76
2022/11/13 09:51:04;;;;;;;;;32.50;22.25;;;;;11.07;73.91;101810.59;5074580;27;46218;-76
2022/11/13 09:53:34;;;;;;;;;26.00;21.50;;;;;11.11;74.03;101799.25;5057835;28;45933;-76
2022/11/13 09:56:04;;;;;;;;;31.50;23.50;;;;;11.15;74.11;101802.66;5058012;28;45356;-76
2022/11/13 09:58:35;;;;;;;;;21.50;21.50;;;;;11.19;73.93;101799.97;5075970;28;45554;-76
2022/11/13 10:01:01;;;;;;;;;31.75;25.00;;;;;11.20;73.68;101798.25;5075377;28;47634;-76
2022/11/13 10:03:37;;;;;;;;;29.00;23.25;;;;;11.27;74.07;101807.69;5074583;28;45518;-76
2022/11/13 10:06:22;;;;;;;;;40.50;25.50;;;;;11.32;73.84;101811.09;5074707;28;45399;-76
2022/11/13 10:08:52;;;;;;;;;29.25;25.50;;;;;11.41;74.14;101799.66;5074633;28;45374;-76
2022/11/13 10:11:38;;;;;;;;;29.50;22.75;;;;;11.48;73.70;101798.69;5074487;28;45383;-77
2022/11/13 10:14:17;;;;;;;;;26.50;21.50;;;;;11.57;73.63;101790.72;5057318;28;45438;-76
2022/11/13 10:16:48;;;;;;;;;28.75;25.50;;;;;11.61;73.77;101781.97;5074344;27;45305;-76
2022/11/13 10:19:31;;;;;;;;;25.75;22.25;;;;;11.70;73.40;101783.56;5074612;28;45290;-76
2022/11/13 10:22:11;;;;;;;;;34.25;27.50;;;;;11.78;73.61;101779.06;5075444;28;46460;-76
2022/11/13 10:24:42;;;;;;;;;28.50;26.25;;;;;11.86;73.40;101773.72;5057452;28;45381;-76
2022/11/13 10:27:11;;;;;;;;;32.00;27.00;;;;;11.95;73.08;101773.56;5057557;28;45501;-76
2022/11/13 10:29:38;;;;;;;;;40.50;29.50;;;;;12.05;72.95;101776.03;5075240;27;45367;-76
2022/11/13 10:32:22;;;;;;;;;34.50;30.75;;;;;12.20;73.21;101776.59;5057222;28;45610;-76
2022/11/13 10:34:55;;;;;;;;;26.00;25.00;;;;;12.37;73.89;101781.50;5075449;27;45891;-76
2022/11/13 10:37:54;;;;;;;;;26.25;21.50;;;;;12.58;72.69;101768.88;5074282;27;45327;-76
2022/11/13 10:40:27;;;;;;;;;32.75;23.75;;;;;12.77;71.69;101754.53;5067516;28;45511;-76
2022/11/13 10:42:53;;;;;;;;;26.75;22.75;;;;;12.94;71.35;101755.91;5056655;28;47644;-76
2022/11/13 10:45:20;;;;;;;;;32.00;25.25;;;;;13.09;71.11;101744.25;5075313;28;45365;-76
2022/11/13 10:47:50;;;;;;;;;26.50;23.50;;;;;13.31;70.67;101758.56;5057334;28;45479;-76
2022/11/13 10:50:25;;;;;;;;;21.25;18.75;;;;;13.79;70.61;101752.16;5057239;28;45393;-76
2022/11/13 10:52:52;;;;;;;;;30.25;23.25;;;;;14.93;69.58;101743.69;5057122;28;45467;-76
2022/11/13 10:55:28;;;;;;;;;31.00;25.00;;;;;16.31;67.48;101738.19;5075122;27;45480;-76
2022/11/13 10:57:59;;;;;;;;;33.00;26.75;;;;;17.68;64.99;101737.16;5056999;28;45437;-76
2022/11/13 11:00:29;;;;;;;;;29.00;24.75;;;;;19.07;62.44;101734.38;5078745;27;45366;-77
2022/11/13 11:02:55;;;;;;;;;29.50;25.50;;;;;20.30;59.78;101726.31;5078429;28;46890;-76
2022/11/13 11:05:22;;;;;;;;;29.25;25.75;;;;;21.51;57.30;101727.50;5078477;28;45382;-76
2022/11/13 11:07:48;;;;;;;;;29.00;28.25;;;;;22.58;54.39;101722.72;5060499;28;45349;-77
2022/11/13 11:10:32;;;;;;;;;30.75;25.00;;;;;23.53;52.03;101715.59;5059363;28;70413;-76
2022/11/13 11:13:07;;;;;;;;;30.75;26.75;;;;;24.23;50.48;101704.53;5078011;28;45351;-76
2022/11/13 11:15:42;;;;;;;;;31.00;29.50;;;;;25.00;48.47;101714.94;5060213;28;45802;-77